San Diego, CA (92174)

9:10 AM PDT on August 29, 2014 (GMT -0700)
RidgeView | Change Station
CLOSE
Current Station
Personal Weather Station
Location: San Diego, CA
Elevation: 272 ft
Nearby Weather Stations
Active Advisory: Beach Hazard Statement

Elev 272 ft 32.73 °N, 117.09 °W | Updated 1 second ago

Scattered Clouds
Scattered Clouds
79.9 °F
Feels Like 84 °F
N
2.0
Wind Variable Wind from ENE
Gusts 2.0 mph

Today
High -- | Low -- °F
--% Chance of Precip.
Yesterday
High -- | Low -- °F
Precip. -- in
6:21 AM 7:16 PM
Waxing Crescent, 15% visible
Pressure 29.91 in
Visibility 10.0 miles
Clouds Scattered Clouds 1200 ft
Heat Index 84 °F
Dew Point 72 °F
Humidity 76%
Rainfall 0.00 in
Snow Depth Not available.
UV 3 out of 12
Pollen 7.70 out of 12
Ozone Good
PM2.5 Moderate
Flu Activity Not available.
METAR KSAN 291551Z 00000KT 10SM SCT012 24/18 A2990 RMK AO2 SLP126 T02390183

More Conditions Fewer Conditions

Pressure 29.91 in
Visibility 10.0 miles
Clouds Scattered Clouds 1200 ft
Heat Index 84 °F
Dew Point 72 °F
Humidity 76%
Rainfall 0.00 in
Snow Depth Not available.
UV 3 out of 12
Pollen 7.70 out of 12
Ozone Good
PM2.5 Moderate
Flu Activity Not available.
METAR KSAN 291551Z 00000KT 10SM SCT012 24/18 A2990 RMK AO2 SLP126 T02390183

More Conditions Fewer Conditions

10-Day Weather Forecast

Almanac

Astronomy

Aug. 29, 2014 Rise Set
Actual Time 6:21 AM PDT 7:16 PM PDT
Civil Twilight 5:55 AM PDT 7:41 PM PDT
Nautical Twilight 5:26 AM PDT 8:11 PM PDT
Astronomical Twilight 4:55 AM PDT 8:42 PM PDT
Moon 10:00 AM PDT 9:33 PM PDT
Length of Visible Light 13h 45m
Length of Day
12h 55m
Tomorrow will be 1m 54s shorter.
Waxing Crescent, 15% of the Moon is Illuminated
Today
Waxing Crescent
Sep 2
First Quarter
Sep 8
Full
Sep 15
Last Quarter
Sep 24
New

Today's Extremes

State Highs State Lows

Community

WunderPhotos

Upload Photos

1,748,275 photos uploaded!

Nearby

Air Quality

  Air Quality AQ Index Pollutant
Yesterday Moderate
PM2.5
Yesterday Good
OZONE
Current Moderate
PM2.5
Current Good
OZONE
Friday Moderate
PM2.5
Friday Good
OZONE

Snow Depth

Station Depth Elevation
Leavitt Lake 0 in 9400 ft
Leavitt Meadows 1 in 7200 ft
Summit Meadow 0 in 9122 ft
Monitor Pass 0 in 8350 ft
Blue Lakes 0 in 8000 ft

Earthquake Activity

City Distance Mag. Time & Date
No recent earthquake activity has been reported nearby.
Minimum magnitude displayed is 2.5.

Coastal Water Temperatures

Place Temperature
La Jolla, CA 68.0 °F
San Diego, CA 73.9 °F

Nearby Weather Stations